createdAt,value
2022-11-17T00:00:45.008Z,97989.06
2022-11-17T00:01:46.578Z,97986.59
2022-11-17T00:02:48.223Z,97989.06
2022-11-17T00:03:51.413Z,97987.28
2022-11-17T00:04:52.934Z,97991.09
2022-11-17T00:05:54.495Z,97986.97
2022-11-17T00:06:58.820Z,97976.44
2022-11-17T00:08:00.414Z,97981.91
2022-11-17T00:09:01.952Z,97987.09
2022-11-17T00:10:04.048Z,97997.75
2022-11-17T00:11:05.957Z,97985.47
2022-11-17T00:12:07.547Z,97986.00
2022-11-17T00:13:10.810Z,97982.72
2022-11-17T00:14:12.463Z,97981.75
2022-11-17T00:15:14.073Z,97982.13
2022-11-17T00:16:17.552Z,97980.25
2022-11-17T00:17:19.151Z,97977.50
2022-11-17T00:18:20.694Z,97978.44
2022-11-17T00:19:22.233Z,97978.44
2022-11-17T00:20:23.731Z,97976.09
2022-11-17T00:21:25.938Z,97977.44
2022-11-17T00:22:30.543Z,97987.25
2022-11-17T00:23:32.338Z,97983.34
2022-11-17T00:24:34.147Z,97987.00
2022-11-17T00:25:35.679Z,97985.81
2022-11-17T00:26:37.237Z,97980.94
2022-11-17T00:27:38.854Z,97985.78
2022-11-17T00:28:40.428Z,97985.50
2022-11-17T00:29:42.026Z,97977.81
2022-11-17T00:30:44.028Z,97988.13
2022-11-17T00:31:45.665Z,97982.78
2022-11-17T00:32:47.225Z,97989.88
2022-11-17T00:33:48.734Z,97984.69
2022-11-17T00:34:50.270Z,97988.81
2022-11-17T00:35:54.091Z,97987.66
2022-11-17T00:36:55.623Z,97990.25
2022-11-17T00:37:57.179Z,97991.22
2022-11-17T00:38:58.777Z,97990.25
2022-11-17T00:40:01.179Z,97982.84
2022-11-17T00:41:03.038Z,97984.63
2022-11-17T00:42:04.789Z,97992.53
2022-11-17T00:43:06.335Z,97983.59
2022-11-17T00:44:08.591Z,97988.19
2022-11-17T00:45:10.488Z,97985.19
2022-11-17T00:46:12.013Z,97990.09
2022-11-17T00:47:13.571Z,97990.94
2022-11-17T00:48:15.066Z,97990.50
2022-11-17T00:49:16.613Z,97993.09
2022-11-17T00:50:18.163Z,97997.34
2022-11-17T00:51:20.113Z,97996.28
2022-11-17T00:52:21.654Z,97999.00
2022-11-17T00:53:23.200Z,98003.16
2022-11-17T00:54:24.889Z,97995.69
2022-11-17T00:55:26.510Z,97993.09
2022-11-17T00:56:28.584Z,98000.06
2022-11-17T00:57:30.125Z,97997.47
2022-11-17T00:58:31.729Z,98006.13
2022-11-17T00:59:33.259Z,98002.56
2022-11-17T01:00:34.818Z,98003.81
2022-11-17T01:01:37.248Z,97999.19
2022-11-17T01:02:38.833Z,97999.19
2022-11-17T01:03:40.472Z,98002.22
2022-11-17T01:04:42.014Z,97998.66
2022-11-17T01:05:43.557Z,97995.69
2022-11-17T01:06:48.271Z,97994.28
2022-11-17T01:07:49.817Z,97995.59
2022-11-17T01:08:51.362Z,98000.06
2022-11-17T01:09:52.868Z,97994.75
2022-11-17T01:10:54.450Z,98002.94
2022-11-17T01:11:55.991Z,98003.06
2022-11-17T01:12:57.522Z,98003.63
2022-11-17T01:14:00.203Z,98002.56
2022-11-17T01:15:01.785Z,98005.59
2022-11-17T01:16:24.382Z,97996.28
2022-11-17T01:17:26.026Z,98003.41
2022-11-17T01:18:27.776Z,97997.34
2022-11-17T01:19:29.320Z,98001.38
2022-11-17T01:20:30.899Z,98007.81
2022-11-17T01:21:32.952Z,98010.16
2022-11-17T01:22:34.459Z,98007.44
2022-11-17T01:23:38.052Z,98009.34
2022-11-17T01:24:39.592Z,98004.94
2022-11-17T01:25:41.136Z,98009.94
2022-11-17T01:28:30.811Z,98010.63
2022-11-17T01:29:32.458Z,98007.31
2022-11-17T01:30:34.006Z,98009.97
2022-11-17T01:31:41.312Z,98017.88
2022-11-17T01:32:42.861Z,98015.38
2022-11-17T01:33:45.061Z,98012.78
2022-11-17T01:34:47.390Z,98012.94
2022-11-17T01:35:48.915Z,98016.47
2022-11-17T01:36:50.534Z,98011.97
2022-11-17T01:37:52.081Z,98009.38
2022-11-17T01:38:53.722Z,98014.94
2022-11-17T01:39:55.263Z,98017.66
2022-11-17T01:40:58.652Z,98021.56
2022-11-17T01:42:09.920Z,98023.97
2022-11-17T01:43:11.773Z,98015.22
2022-11-17T01:44:44.448Z,98023.13
2022-11-17T01:45:46.017Z,98025.25
2022-11-17T01:46:48.454Z,98023.38
2022-11-17T01:47:58.599Z,98018.03
2022-11-17T01:49:21.587Z,98025.38
2022-11-17T01:50:49.532Z,98031.28
2022-11-17T01:51:55.858Z,98026.91
2022-11-17T01:54:27.214Z,98030.47
2022-11-17T01:55:55.804Z,98030.69
2022-11-17T01:57:02.859Z,98025.25
2022-11-17T01:58:14.148Z,98025.97
2022-11-17T01:59:27.856Z,98026.91
2022-11-17T02:00:29.599Z,98032.47
2022-11-17T02:01:32.612Z,98028.09
2022-11-17T02:02:35.759Z,98019.22
2022-11-17T02:03:38.931Z,98014.84
2022-11-17T02:04:47.454Z,98022.66
2022-11-17T02:05:58.330Z,98014.50
2022-11-17T02:07:06.138Z,98022.31
2022-11-17T02:08:09.347Z,98020.66
2022-11-17T02:09:11.334Z,98019.44
2022-11-17T02:10:13.084Z,98018.38
2022-11-17T02:11:18.031Z,98012.44
2022-11-17T02:12:21.596Z,98020.03
2022-11-17T02:13:24.118Z,98016.13
2022-11-17T02:14:25.695Z,98015.88
2022-11-17T02:15:29.275Z,98014.56
2022-11-17T02:16:30.777Z,98001.81
2022-11-17T02:17:38.472Z,98008.44
2022-11-17T02:18:41.807Z,98004.63
2022-11-17T02:19:45.916Z,98009.97
2022-11-17T02:21:00.158Z,98000.72
2022-11-17T02:22:29.455Z,98003.91
2022-11-17T02:24:27.619Z,98004.38
2022-11-17T02:26:01.948Z,98004.25
2022-11-17T02:27:51.622Z,98006.25
2022-11-17T02:29:19.259Z,98004.06
2022-11-17T02:30:23.161Z,98004.75
2022-11-17T02:31:39.860Z,98007.84
2022-11-17T02:33:05.874Z,98004.06
2022-11-17T02:34:19.294Z,98003.25
2022-11-17T02:35:33.332Z,97999.25
2022-11-17T02:36:57.710Z,97998.91
2022-11-17T02:38:07.865Z,97998.53
2022-11-17T02:39:24.769Z,97992.59
2022-11-17T02:40:43.914Z,97992.59
2022-11-17T02:41:54.367Z,97993.91
2022-11-17T02:43:01.114Z,97989.19
2022-11-17T02:44:16.280Z,97990.72
2022-11-17T02:45:22.372Z,97987.53
2022-11-17T02:46:25.585Z,97990.50
2022-11-17T02:47:35.672Z,97987.41
2022-11-17T02:48:40.284Z,97983.13
2022-11-17T02:49:47.664Z,97983.28
2022-11-17T02:50:50.477Z,97984.22
2022-11-17T02:51:55.253Z,97979.22
2022-11-17T02:52:57.007Z,97983.13
2022-11-17T02:53:58.548Z,97979.13
2022-11-17T02:55:06.131Z,97974.97
2022-11-17T02:56:08.339Z,97974.88
2022-11-17T02:57:39.174Z,97979.13
2022-11-17T02:58:40.767Z,97976.50
2022-11-17T02:59:48.905Z,97969.66
2022-11-17T03:00:58.290Z,97963.38
2022-11-17T03:02:27.377Z,97963.25
2022-11-17T03:03:53.601Z,97964.31
2022-11-17T03:05:18.840Z,97961.16
2022-11-17T03:06:43.012Z,97969.41
2022-11-17T03:08:14.643Z,97967.75
2022-11-17T03:09:32.038Z,97968.81
2022-11-17T03:10:45.663Z,97966.91
2022-11-17T03:12:21.203Z,97970.25
2022-11-17T03:14:01.968Z,97968.09
2022-11-17T03:15:21.418Z,97960.28
2022-11-17T03:16:29.319Z,97963.72
2022-11-17T03:17:39.869Z,97964.78
2022-11-17T03:18:51.961Z,97953.53
2022-11-17T03:20:08.249Z,97956.97
2022-11-17T03:21:25.735Z,97961.22
2022-11-17T03:22:42.867Z,97965.16
2022-11-17T03:23:51.892Z,97971.53
2022-11-17T03:24:58.244Z,97971.38
2022-11-17T03:26:02.141Z,97966.66
2022-11-17T03:27:12.516Z,97976.94
2022-11-17T03:28:17.037Z,97977.63
2022-11-17T03:29:22.730Z,97981.50
2022-11-17T03:30:24.947Z,97975.25
2022-11-17T03:31:28.788Z,97978.91
2022-11-17T03:32:33.878Z,97980.56
2022-11-17T03:33:37.990Z,97976.19
2022-11-17T03:34:45.835Z,97978.91
2022-11-17T03:35:54.740Z,97978.91
2022-11-17T03:37:02.176Z,97979.38
2022-11-17T03:38:12.357Z,97978.28
2022-11-17T03:39:25.797Z,97981.84
2022-11-17T03:40:30.707Z,97973.06
2022-11-17T03:41:36.360Z,97980.88
2022-11-17T03:42:46.286Z,97977.59
2022-11-17T03:43:49.479Z,97978.75
2022-11-17T03:44:54.803Z,97979.34
2022-11-17T03:46:03.082Z,97981.56
2022-11-17T03:47:06.961Z,97992.31
2022-11-17T03:48:33.981Z,97992.75
2022-11-17T03:50:03.851Z,97997.97
2022-11-17T03:51:16.240Z,97990.84
2022-11-17T03:52:18.705Z,97995.69
2022-11-17T03:53:20.354Z,97990.09
2022-11-17T03:54:22.510Z,97996.25
2022-11-17T03:55:31.832Z,97986.91
2022-11-17T03:56:55.544Z,97988.34
2022-11-17T03:58:05.637Z,97985.19
2022-11-17T03:59:17.526Z,97982.03
2022-11-17T04:00:19.991Z,97983.13
2022-11-17T04:01:22.908Z,97986.91
2022-11-17T04:02:26.660Z,97989.19
2022-11-17T04:03:35.200Z,97987.81
2022-11-17T04:04:36.909Z,97991.91
2022-11-17T04:05:38.425Z,97989.44
2022-11-17T04:06:39.949Z,97989.44
2022-11-17T04:07:43.706Z,97994.78
2022-11-17T04:08:45.391Z,97991.59
2022-11-17T04:09:46.979Z,97988.97
2022-11-17T04:10:48.463Z,97986.84
2022-11-17T04:11:49.963Z,97985.88
2022-11-17T04:12:52.898Z,97986.47
2022-11-17T04:13:54.421Z,97985.78
2022-11-17T04:14:55.918Z,97985.31
2022-11-17T04:15:57.675Z,97986.38
2022-11-17T04:16:59.216Z,97984.53
2022-11-17T04:18:00.854Z,97982.16
2022-11-17T04:19:02.427Z,97980.41
2022-11-17T04:20:04.354Z,97982.06
2022-11-17T04:21:05.893Z,97985.28
2022-11-17T04:22:07.405Z,97980.66
2022-11-17T04:23:14.819Z,97977.34
2022-11-17T04:24:16.362Z,97981.97
2022-11-17T04:25:17.902Z,97979.13
2022-11-17T04:26:19.548Z,97977.72
2022-11-17T04:27:21.088Z,97980.06
2022-11-17T04:28:24.169Z,97982.31
2022-11-17T04:29:25.665Z,97976.53
2022-11-17T04:30:27.213Z,97983.25
2022-11-17T04:31:30.427Z,97980.88
2022-11-17T04:32:31.916Z,97980.41
2022-11-17T04:33:34.587Z,97983.84
2022-11-17T04:34:36.301Z,97986.56
2022-11-17T04:35:37.870Z,97987.25
2022-11-17T04:36:41.532Z,97989.75
2022-11-17T04:37:43.091Z,97994.81
2022-11-17T04:38:49.737Z,97989.13
2022-11-17T04:39:51.277Z,97992.53
2022-11-17T04:40:52.854Z,97994.19
2022-11-17T04:41:54.497Z,97991.47
2022-11-17T04:42:56.108Z,97997.75
2022-11-17T04:43:58.195Z,98001.19
2022-11-17T04:44:59.711Z,97993.50
2022-11-17T04:46:01.561Z,97995.63
2022-11-17T04:47:03.629Z,97999.72
2022-11-17T04:48:05.284Z,97993.00
2022-11-17T04:49:07.947Z,97995.09
2022-11-17T04:50:09.546Z,97994.88
2022-11-17T04:51:11.748Z,98000.88
2022-11-17T04:52:13.308Z,97998.66
2022-11-17T04:53:14.814Z,97991.00
2022-11-17T04:54:18.713Z,97991.69
2022-11-17T04:55:20.254Z,97998.41
2022-11-17T04:56:22.785Z,97989.66
2022-11-17T04:57:24.297Z,97993.78
2022-11-17T04:58:26.011Z,97989.06
2022-11-17T04:59:27.558Z,97992.50
2022-11-17T05:00:29.095Z,97992.63
2022-11-17T05:01:32.280Z,97993.59
2022-11-17T05:02:33.954Z,97991.00
2022-11-17T05:03:35.804Z,97992.06
2022-11-17T05:04:37.561Z,97996.75
2022-11-17T05:05:39.074Z,97994.88
2022-11-17T05:06:43.382Z,97989.88
2022-11-17T05:07:44.848Z,97990.16
2022-11-17T05:08:47.078Z,97991.91
2022-11-17T05:09:48.614Z,97984.25
2022-11-17T05:10:50.187Z,97987.09
2022-11-17T05:11:51.804Z,97987.22
2022-11-17T05:12:53.327Z,97983.91
2022-11-17T05:13:54.837Z,97984.72
2022-11-17T05:14:56.337Z,97988.91
2022-11-17T05:15:58.123Z,97985.34
2022-11-17T05:17:03.225Z,97987.84
2022-11-17T05:18:08.970Z,97988.09
2022-11-17T05:19:22.717Z,97986.69
2022-11-17T05:20:24.259Z,97991.66
2022-11-17T05:21:25.757Z,97991.53
2022-11-17T05:22:27.305Z,97990.81
2022-11-17T05:23:28.844Z,97989.16
2022-11-17T05:24:30.335Z,97994.00
2022-11-17T05:25:31.825Z,97997.75
2022-11-17T05:26:35.522Z,97991.47
2022-11-17T05:27:37.995Z,97988.50
2022-11-17T05:28:39.629Z,97987.34
2022-11-17T05:29:41.170Z,97994.09
2022-11-17T05:30:42.709Z,97995.63
2022-11-17T05:31:44.612Z,97999.72
2022-11-17T05:32:46.104Z,97995.47
2022-11-17T05:33:48.056Z,97998.59
2022-11-17T05:34:49.706Z,97998.69
2022-11-17T05:35:51.249Z,97993.97
2022-11-17T05:36:52.786Z,97991.78
2022-11-17T05:37:54.338Z,97995.94
2022-11-17T05:38:56.118Z,97990.16
2022-11-17T05:39:57.680Z,97989.44
2022-11-17T05:40:59.335Z,97992.31
2022-11-17T05:42:00.969Z,97983.78
2022-11-17T05:43:02.484Z,97990.53
2022-11-17T05:44:04.918Z,97993.00
2022-11-17T05:45:07.131Z,97995.72
2022-11-17T05:46:09.133Z,97992.06
2022-11-17T05:47:10.673Z,97994.19
2022-11-17T05:48:12.420Z,97992.00
2022-11-17T05:49:14.023Z,97986.53
2022-11-17T05:50:15.564Z,97992.81
2022-11-17T05:51:19.344Z,97998.25
2022-11-17T05:52:20.905Z,97988.81
2022-11-17T05:53:23.543Z,97993.06
2022-11-17T05:54:25.051Z,97991.84
2022-11-17T05:55:26.559Z,97996.00
2022-11-17T05:56:55.484Z,97996.78
2022-11-17T05:58:01.797Z,97992.00
2022-11-17T05:59:14.611Z,97991.53
2022-11-17T06:00:16.390Z,97997.94
2022-11-17T06:01:20.351Z,97995.06
2022-11-17T06:02:28.652Z,98000.88
2022-11-17T06:03:38.057Z,98000.88
2022-11-17T06:04:39.877Z,98006.66
2022-11-17T06:05:41.782Z,98003.09
2022-11-17T06:06:44.262Z,98003.34
2022-11-17T06:07:45.824Z,98003.34
2022-11-17T06:08:47.337Z,98006.19
2022-11-17T06:09:50.147Z,98001.13
2022-11-17T06:10:51.650Z,98004.16
2022-11-17T06:11:53.194Z,98003.22
2022-11-17T06:12:54.684Z,98000.50
2022-11-17T06:13:56.216Z,98000.88
2022-11-17T06:14:57.758Z,97998.31
2022-11-17T06:16:02.540Z,98004.94
2022-11-17T06:17:09.510Z,98005.78
2022-11-17T06:18:15.269Z,98003.63
2022-11-17T06:19:23.168Z,98010.38
2022-11-17T06:20:28.847Z,98004.78
2022-11-17T06:21:49.450Z,98015.47
2022-11-17T06:22:52.758Z,98016.53
2022-11-17T06:23:54.333Z,98003.41
2022-11-17T06:24:56.767Z,98004.47
2022-11-17T06:26:01.004Z,98013.34
2022-11-17T06:27:02.631Z,98010.88
2022-11-17T06:28:09.718Z,98009.34
2022-11-17T06:29:12.291Z,98010.78
2022-11-17T06:30:13.798Z,98014.56
2022-11-17T06:31:16.603Z,98008.28
2022-11-17T06:32:19.454Z,98004.72
2022-11-17T06:33:21.398Z,98000.06
2022-11-17T06:34:22.971Z,98008.72
2022-11-17T06:35:25.203Z,98013.09
2022-11-17T06:36:26.951Z,98010.03
2022-11-17T06:37:28.495Z,98013.59
2022-11-17T06:38:30.134Z,98013.81
2022-11-17T06:39:31.784Z,98005.16
2022-11-17T06:40:33.312Z,98013.81
2022-11-17T06:41:35.989Z,98009.41
2022-11-17T06:42:39.689Z,98015.22
2022-11-17T06:43:41.232Z,98009.06
2022-11-17T06:44:42.774Z,98016.88
2022-11-17T06:45:46.268Z,98007.28
2022-11-17T06:46:49.219Z,98021.13
2022-11-17T06:47:53.241Z,98015.81
2022-11-17T06:48:54.754Z,98018.84
2022-11-17T06:49:56.252Z,98014.22
2022-11-17T06:50:57.761Z,98021.34
2022-11-17T06:51:59.308Z,98026.31
2022-11-17T06:53:02.832Z,98031.78
2022-11-17T06:54:04.448Z,98025.03
2022-11-17T06:55:06.569Z,98027.41
2022-11-17T06:56:08.113Z,98025.63
2022-11-17T06:57:09.619Z,98022.66
2022-11-17T06:58:11.176Z,98035.22
2022-11-17T06:59:12.779Z,98032.75
2022-11-17T07:00:14.801Z,98031.91
2022-11-17T07:01:17.051Z,98031.91
2022-11-17T07:02:18.758Z,98035.81
2022-11-17T07:03:20.424Z,98030.75
2022-11-17T07:04:21.943Z,98034.09
2022-11-17T07:05:23.470Z,98032.06
2022-11-17T07:06:25.110Z,98033.38
2022-11-17T07:07:26.658Z,98036.66
2022-11-17T07:08:28.590Z,98032.97
2022-11-17T07:09:30.153Z,98031.91
2022-11-17T07:10:32.824Z,98033.88
2022-11-17T07:11:35.291Z,98034.59
2022-11-17T07:12:36.833Z,98043.34
2022-11-17T07:13:38.930Z,98038.88
2022-11-17T07:14:40.458Z,98034.59
2022-11-17T07:15:41.971Z,98035.06
2022-11-17T07:16:43.499Z,98033.84
2022-11-17T07:17:45.277Z,98027.69
2022-11-17T07:18:46.806Z,98035.38
2022-11-17T07:19:48.279Z,98034.31
2022-11-17T07:20:49.729Z,98029.91
2022-11-17T07:21:51.090Z,98036.66
2022-11-17T07:22:58.549Z,98040.94
2022-11-17T07:24:00.177Z,98036.09
2022-11-17T07:25:01.666Z,98034.66
2022-11-17T07:26:03.552Z,98036.47
2022-11-17T07:27:05.092Z,98038.84
2022-11-17T07:28:06.739Z,98036.75
2022-11-17T07:29:08.278Z,98040.88
2022-11-17T07:30:10.443Z,98046.41
2022-11-17T07:31:11.980Z,98035.72
2022-11-17T07:32:13.545Z,98040.25
2022-11-17T07:33:15.179Z,98045.47
2022-11-17T07:34:16.668Z,98040.13
2022-11-17T07:35:18.178Z,98047.69
2022-11-17T07:36:19.774Z,98048.28
2022-11-17T07:37:21.250Z,98049.59
2022-11-17T07:38:23.100Z,98046.16
2022-11-17T07:39:24.633Z,98051.25
2022-11-17T07:40:26.242Z,98048.75
2022-11-17T07:41:27.827Z,98057.84
2022-11-17T07:42:30.901Z,98054.44
2022-11-17T07:43:33.786Z,98045.91
2022-11-17T07:44:35.323Z,98049.59
2022-11-17T07:45:36.964Z,98046.03
2022-11-17T07:46:38.507Z,98052.22
2022-11-17T07:47:39.987Z,98042.97
2022-11-17T07:48:42.826Z,98056.72
2022-11-17T07:49:44.375Z,98055.31
2022-11-17T07:50:45.898Z,98051.88
2022-11-17T07:51:47.397Z,98053.78
2022-11-17T07:52:53.294Z,98054.59
2022-11-17T07:53:54.798Z,98055.69
2022-11-17T07:54:56.274Z,98056.41
2022-11-17T07:56:01.768Z,98046.91
2022-11-17T07:57:03.460Z,98042.56
2022-11-17T07:58:05.106Z,98037.38
2022-11-17T07:59:06.797Z,98036.09
2022-11-17T08:00:08.908Z,98035.38
2022-11-17T08:01:19.712Z,98036.34
2022-11-17T08:02:21.373Z,98035.50
2022-11-17T08:03:22.925Z,98039.91
2022-11-17T08:04:24.454Z,98041.81
2022-11-17T08:05:25.960Z,98041.09
2022-11-17T08:06:27.510Z,98045.13
2022-11-17T08:07:29.098Z,98050.69
2022-11-17T08:08:31.464Z,98050.72
2022-11-17T08:09:32.979Z,98042.06
2022-11-17T08:10:34.526Z,98048.47
2022-11-17T08:11:36.321Z,98055.84
2022-11-17T08:12:37.809Z,98051.00
2022-11-17T08:13:40.377Z,98047.22
2022-11-17T08:14:41.920Z,98042.84
2022-11-17T08:15:43.413Z,98039.91
2022-11-17T08:16:44.904Z,98031.97
2022-11-17T08:17:50.850Z,98032.38
2022-11-17T08:18:52.847Z,98026.06
2022-11-17T08:19:54.660Z,98029.75
2022-11-17T08:21:08.080Z,98025.47
2022-11-17T08:22:09.568Z,98028.94
2022-11-17T08:23:11.019Z,98031.63
2022-11-17T08:24:12.600Z,98030.81
2022-11-17T08:25:14.143Z,98026.69
2022-11-17T08:26:15.683Z,98030.94
2022-11-17T08:27:17.235Z,98033.19
2022-11-17T08:28:18.832Z,98030.47
2022-11-17T08:29:20.281Z,98029.53
2022-11-17T08:30:22.405Z,98029.63
2022-11-17T08:31:24.365Z,98031.66
2022-11-17T08:32:25.975Z,98023.50
2022-11-17T08:33:27.975Z,98030.50
2022-11-17T08:34:29.519Z,98020.19
2022-11-17T08:35:35.946Z,98026.47
2022-11-17T08:36:40.281Z,98024.09
2022-11-17T08:37:41.886Z,98026.69
2022-11-17T08:38:43.368Z,98026.66
2022-11-17T08:39:44.862Z,98030.31
2022-11-17T08:40:46.404Z,98023.09
2022-11-17T08:41:47.902Z,98028.75
2022-11-17T08:42:59.158Z,98019.06
2022-11-17T08:44:02.330Z,98022.38
2022-11-17T08:45:05.322Z,98017.50
2022-11-17T08:46:13.663Z,98017.78
2022-11-17T08:47:15.180Z,98019.91
2022-11-17T08:48:16.716Z,98019.81
2022-11-17T08:49:18.234Z,98026.06
2022-11-17T08:50:19.760Z,98029.75
2022-11-17T08:51:21.245Z,98025.84
2022-11-17T08:52:22.752Z,98030.56
2022-11-17T08:53:24.230Z,98026.41
2022-11-17T08:54:25.752Z,98031.50
2022-11-17T08:55:27.269Z,98037.06
2022-11-17T08:56:28.917Z,98032.69
2022-11-17T08:57:30.615Z,98036.47
2022-11-17T08:58:32.186Z,98040.97
2022-11-17T08:59:33.776Z,98039.56
2022-11-17T09:00:35.647Z,98046.19
2022-11-17T09:01:37.148Z,98042.38
2022-11-17T09:02:38.980Z,98045.25
2022-11-17T09:03:42.867Z,98046.09
2022-11-17T09:04:44.367Z,98046.44
2022-11-17T09:05:46.539Z,98052.09
2022-11-17T09:06:48.039Z,98043.69
2022-11-17T09:07:49.602Z,98045.94
2022-11-17T09:08:53.675Z,98043.81
2022-11-17T09:09:55.216Z,98043.13
2022-11-17T09:10:57.062Z,98044.78
2022-11-17T09:11:59.790Z,98044.63
2022-11-17T09:13:01.306Z,98050.09
2022-11-17T09:14:02.732Z,98053.75
2022-11-17T09:15:05.165Z,98062.31
2022-11-17T09:16:09.562Z,98054.00
2022-11-17T09:17:11.076Z,98057.78
2022-11-17T09:18:12.602Z,98052.22
2022-11-17T09:19:14.126Z,98051.28
2022-11-17T09:20:16.700Z,98050.91
2022-11-17T09:21:18.178Z,98055.88
2022-11-17T09:22:22.739Z,98055.16
2022-11-17T09:23:24.385Z,98052.78
2022-11-17T09:24:26.362Z,98056.34
2022-11-17T09:25:31.393Z,98042.38
2022-11-17T09:26:32.937Z,98046.44
2022-11-17T09:27:34.579Z,98044.03
2022-11-17T09:28:36.748Z,98045.22
2022-11-17T09:29:38.662Z,98052.94
2022-11-17T09:30:40.129Z,98048.53
2022-11-17T09:31:41.587Z,98056.13
2022-11-17T09:32:43.107Z,98052.09
2022-11-17T09:33:44.554Z,98050.66
2022-11-17T09:34:46.111Z,98055.03
2022-11-17T09:35:47.614Z,98051.84
2022-11-17T09:36:49.160Z,98047.47
2022-11-17T09:37:50.686Z,98051.97
2022-11-17T09:38:52.212Z,98050.91
2022-11-17T09:39:53.897Z,98060.84
2022-11-17T09:40:55.947Z,98055.19
2022-11-17T09:41:57.630Z,98055.19
2022-11-17T09:42:59.213Z,98054.84
2022-11-17T09:44:13.723Z,98055.78
2022-11-17T09:45:28.729Z,98058.50
2022-11-17T09:46:54.348Z,98065.25
2022-11-17T09:48:33.553Z,98060.63
2022-11-17T09:49:53.540Z,98067.88
2022-11-17T09:51:00.014Z,98057.09
2022-11-17T09:52:13.781Z,98060.41
2022-11-17T09:53:29.613Z,98061.59
2022-11-17T09:54:49.284Z,98071.63
2022-11-17T09:55:58.504Z,98062.41
2022-11-17T09:57:01.185Z,98069.03
2022-11-17T09:58:47.373Z,98064.19
2022-11-17T09:59:59.153Z,98065.69
2022-11-17T10:01:00.961Z,98073.97
2022-11-17T10:02:02.528Z,98069.84
2022-11-17T10:03:41.779Z,98069.97
2022-11-17T10:04:46.607Z,98066.88
2022-11-17T10:05:49.332Z,98071.13
2022-11-17T10:06:51.040Z,98065.13
2022-11-17T10:07:54.913Z,98061.56
2022-11-17T10:09:11.506Z,98064.06
2022-11-17T10:10:18.683Z,98058.72
2022-11-17T10:11:20.482Z,98066.84
2022-11-17T10:12:32.209Z,98067.69
2022-11-17T10:13:36.718Z,98069.94
2022-11-17T10:14:40.216Z,98059.06
2022-11-17T10:15:48.413Z,98064.97
2022-11-17T10:16:49.855Z,98075.72
2022-11-17T10:17:51.589Z,98066.50
2022-11-17T10:18:53.045Z,98068.53
2022-11-17T10:19:54.479Z,98068.88
2022-11-17T10:20:55.974Z,98063.22
2022-11-17T10:22:03.375Z,98075.16
2022-11-17T10:23:04.893Z,98070.06
2022-11-17T10:24:08.542Z,98072.78
2022-11-17T10:25:39.766Z,98080.09
2022-11-17T10:26:46.651Z,98087.22
2022-11-17T10:27:52.801Z,98092.19
2022-11-17T10:29:11.445Z,98090.53
2022-11-17T10:30:19.079Z,98086.41
2022-11-17T10:31:20.613Z,98087.59
2022-11-17T10:32:22.173Z,98080.72
2022-11-17T10:33:36.964Z,98083.19
2022-11-17T10:34:41.366Z,98079.06
2022-11-17T10:35:56.170Z,98075.75
2022-11-17T10:37:04.497Z,98074.31
2022-11-17T10:38:17.212Z,98077.63
2022-11-17T10:39:42.029Z,98084.97
2022-11-17T10:40:43.467Z,98071.97
2022-11-17T10:41:44.974Z,98075.63
2022-11-17T10:43:05.444Z,98064.63
2022-11-17T10:44:20.766Z,98071.03
2022-11-17T10:45:22.448Z,98066.53
2022-11-17T10:46:24.274Z,98071.28
2022-11-17T10:47:38.707Z,98066.06
2022-11-17T10:48:54.685Z,98064.53
2022-11-17T10:50:25.796Z,98066.41
2022-11-17T10:51:34.431Z,98062.28
2022-11-17T10:52:35.974Z,98060.00
2022-11-17T10:53:46.269Z,98055.41
2022-11-17T10:54:48.577Z,98055.31
2022-11-17T10:56:06.410Z,98058.59
2022-11-17T10:57:16.560Z,98053.16
2022-11-17T10:58:26.080Z,98055.88
2022-11-17T10:59:44.519Z,98052.81
2022-11-17T11:01:01.988Z,98052.34
2022-11-17T11:02:34.606Z,98045.97
2022-11-17T11:03:36.580Z,98046.66
2022-11-17T11:04:38.958Z,98039.31
2022-11-17T11:06:04.626Z,98040.75
2022-11-17T11:07:10.784Z,98037.56
2022-11-17T11:08:21.969Z,98034.03
2022-11-17T11:09:23.778Z,98034.13
2022-11-17T11:10:31.757Z,98035.22
2022-11-17T11:11:45.325Z,98036.53
2022-11-17T11:13:01.195Z,98035.00
2022-11-17T11:14:25.484Z,98039.50
2022-11-17T11:15:32.648Z,98041.00
2022-11-17T11:16:34.174Z,98045.50
2022-11-17T11:17:35.693Z,98050.84
2022-11-17T11:18:38.001Z,98044.69
2022-11-17T11:19:42.056Z,98043.84
2022-11-17T11:21:11.483Z,98036.28
2022-11-17T11:22:30.296Z,98036.03
2022-11-17T11:23:46.030Z,98040.19
2022-11-17T11:25:07.747Z,98028.13
2022-11-17T11:26:36.685Z,98033.94
2022-11-17T11:28:10.840Z,98024.94
2022-11-17T11:29:29.864Z,98030.38
2022-11-17T11:30:42.391Z,98031.78
2022-11-17T11:31:54.487Z,98030.59
2022-11-17T11:33:17.737Z,98035.66
2022-11-17T11:34:34.605Z,98030.22
2022-11-17T11:35:54.463Z,98031.69
2022-11-17T11:37:09.451Z,98027.06
2022-11-17T11:38:19.698Z,98025.28
2022-11-17T11:39:42.912Z,98021.84
2022-11-17T11:41:14.805Z,98017.72
2022-11-17T11:42:49.307Z,98033.91
2022-11-17T11:44:02.839Z,98030.13
2022-11-17T11:45:13.027Z,98035.66
2022-11-17T11:46:35.213Z,98035.94
2022-11-17T11:47:51.877Z,98037.31
2022-11-17T11:48:58.543Z,98037.00
2022-11-17T11:50:26.533Z,98039.00
2022-11-17T11:51:34.534Z,98036.03
2022-11-17T11:52:40.277Z,98042.88
2022-11-17T11:53:51.002Z,98045.25
2022-11-17T11:54:56.815Z,98050.94
2022-11-17T11:56:32.516Z,98048.44
2022-11-17T11:57:42.456Z,98056.16
2022-11-17T11:58:50.167Z,98058.50
2022-11-17T12:00:27.219Z,98060.31
2022-11-17T12:01:43.550Z,98064.91
2022-11-17T12:02:58.578Z,98067.63
2022-11-17T12:04:15.292Z,98064.41
2022-11-17T12:05:56.744Z,98074.38
2022-11-17T12:07:25.706Z,98070.56
2022-11-17T12:08:37.844Z,98074.38
2022-11-17T12:10:02.491Z,98075.41
2022-11-17T12:11:13.160Z,98067.50
2022-11-17T12:12:20.740Z,98070.91
2022-11-17T12:13:23.849Z,98073.41
2022-11-17T12:14:26.081Z,98079.22
2022-11-17T12:15:27.522Z,98076.81
2022-11-17T12:16:34.057Z,98079.56
2022-11-17T12:17:36.748Z,98085.13
2022-11-17T12:18:38.298Z,98084.28
2022-11-17T12:20:10.490Z,98080.03
2022-11-17T12:21:13.616Z,98071.41
2022-11-17T12:22:35.337Z,98080.53
2022-11-17T12:24:04.440Z,98074.81
2022-11-17T12:25:19.295Z,98082.88
2022-11-17T12:26:23.545Z,98078.03
2022-11-17T12:27:34.054Z,98084.63
2022-11-17T12:28:40.343Z,98090.44
2022-11-17T12:29:47.828Z,98099.31
2022-11-17T12:30:52.298Z,98097.19
2022-11-17T12:32:01.968Z,98097.66
2022-11-17T12:33:05.832Z,98096.59
2022-11-17T12:34:07.251Z,98090.53
2022-11-17T12:35:27.544Z,98092.22
2022-11-17T12:36:31.964Z,98091.97
2022-11-17T12:37:33.498Z,98090.09
2022-11-17T12:38:39.089Z,98095.41
2022-11-17T12:40:00.230Z,98092.44
2022-11-17T12:41:01.727Z,98088.91
2022-11-17T12:42:03.732Z,98091.50
2022-11-17T12:43:27.606Z,98086.63
2022-11-17T12:44:32.162Z,98080.25
2022-11-17T12:45:53.573Z,98073.41
2022-11-17T12:47:04.410Z,98068.91
2022-11-17T12:48:32.484Z,98067.59
2022-11-17T12:49:43.823Z,98071.84
2022-11-17T12:51:03.383Z,98073.41
2022-11-17T12:52:17.121Z,98076.84
2022-11-17T12:54:14.315Z,98076.25
2022-11-17T12:55:34.651Z,98084.72
2022-11-17T12:56:44.950Z,98083.06
2022-11-17T12:57:54.578Z,98088.16
2022-11-17T12:59:26.943Z,98085.94
2022-11-17T13:00:30.640Z,98093.84
2022-11-17T13:01:51.150Z,98095.25
2022-11-17T13:03:11.331Z,98087.34
2022-11-17T13:04:17.326Z,98090.91